createdAt,value
2023-04-03T00:00:58.776Z,100513.64
2023-04-03T00:04:12.616Z,100517.16
2023-04-03T00:06:42.627Z,100518.57
2023-04-03T00:09:12.866Z,100531.52
2023-04-03T00:11:43.014Z,100533.27
2023-04-03T00:14:39.518Z,100535.73
2023-04-03T00:17:07.802Z,100537.31
2023-04-03T00:20:28.457Z,100539.06
2023-04-03T00:23:45.522Z,100541.55
2023-04-03T00:26:15.005Z,100548.54
2023-04-03T00:28:44.831Z,100551.16
2023-04-03T00:31:16.656Z,100552.19
2023-04-03T00:33:45.064Z,100563.20
2023-04-03T00:36:15.164Z,100567.58
2023-04-03T00:38:44.259Z,100571.27
2023-04-03T00:41:37.469Z,100577.90
2023-04-03T00:44:35.060Z,100582.98
2023-04-03T00:47:03.963Z,100583.34
2023-04-03T00:49:32.396Z,100580.58
2023-04-03T00:52:01.085Z,100588.60
2023-04-03T00:54:30.591Z,100588.42
2023-04-03T00:56:58.982Z,100585.09
2023-04-03T00:59:31.008Z,100585.09
2023-04-03T01:02:00.550Z,100586.30
2023-04-03T01:04:32.182Z,100591.19
2023-04-03T01:07:03.581Z,100597.45
2023-04-03T01:15:44.323Z,100606.83
2023-04-03T01:18:12.701Z,100610.16
2023-04-03T01:20:56.770Z,100617.52
2023-04-03T01:24:03.023Z,100619.58
2023-04-03T01:26:57.103Z,100629.31
2023-04-03T01:29:31.097Z,100632.09
2023-04-03T01:32:12.988Z,100642.56
2023-04-03T01:34:43.391Z,100647.75
2023-04-03T01:37:11.941Z,100650.69
2023-04-03T01:39:40.136Z,100653.99
2023-04-03T01:45:01.456Z,100665.30
2023-04-03T01:47:30.139Z,100667.06
2023-04-03T01:49:58.744Z,100669.33
2023-04-03T01:54:07.718Z,100679.98
2023-04-03T01:56:40.936Z,100684.70
2023-04-03T01:59:09.990Z,100686.41
2023-04-03T02:01:39.988Z,100689.39
2023-04-03T02:04:33.801Z,100694.95
2023-04-03T02:07:28.731Z,100700.20
2023-04-03T02:09:57.739Z,100707.83
2023-04-03T02:12:26.586Z,100712.02
2023-04-03T02:23:25.621Z,100759.16
2023-04-03T02:25:54.226Z,100768.98
2023-04-03T02:29:15.771Z,100764.75
2023-04-03T02:32:09.595Z,100775.91
2023-04-03T02:35:03.785Z,100777.83
2023-04-03T02:37:57.210Z,100784.42
2023-04-03T02:40:26.069Z,100790.33
2023-04-03T02:42:54.603Z,100794.70
2023-04-03T02:45:24.740Z,100799.91
2023-04-03T02:47:53.578Z,100805.84
2023-04-03T02:50:21.981Z,100812.45
2023-04-03T02:53:20.318Z,100814.35
2023-04-03T02:55:52.855Z,100824.48
2023-04-03T02:58:24.927Z,100829.36
2023-04-03T03:00:54.895Z,100834.77
2023-04-03T03:03:24.253Z,100842.83
2023-04-03T03:06:17.956Z,100844.23
2023-04-03T03:08:46.604Z,100851.90
2023-04-03T03:11:40.940Z,100856.79
2023-04-03T03:14:37.980Z,100865.70
2023-04-03T03:17:06.515Z,100864.48
2023-04-03T03:19:35.864Z,100869.18
2023-04-03T03:22:07.634Z,100873.20
2023-04-03T03:24:36.101Z,100876.85
2023-04-03T03:27:06.819Z,100880.34
2023-04-03T03:29:40.524Z,100881.20
2023-04-03T03:32:09.570Z,100889.08
2023-04-03T03:34:38.553Z,100894.30
2023-04-03T03:37:32.601Z,100898.86
2023-04-03T03:40:01.626Z,100902.86
2023-04-03T03:42:31.149Z,100904.58
2023-04-03T03:44:59.852Z,100907.20
2023-04-03T03:47:28.580Z,100912.96
2023-04-03T03:53:41.704Z,100935.55
2023-04-03T03:56:15.266Z,100934.50
2023-04-03T03:59:09.604Z,100936.61
2023-04-03T04:02:04.001Z,100947.26
2023-04-03T04:04:32.754Z,100948.83
2023-04-03T04:07:02.103Z,100955.83
2023-04-03T04:09:31.705Z,100959.48
2023-04-03T04:12:00.471Z,100964.68
2023-04-03T04:17:50.921Z,100984.27
2023-04-03T04:21:11.016Z,100987.04
2023-04-03T04:23:44.145Z,100996.63
2023-04-03T04:26:37.874Z,101000.27
2023-04-03T04:29:36.461Z,101006.23
2023-04-03T04:32:05.389Z,101009.20
2023-04-03T04:34:35.244Z,101011.62
2023-04-03T04:37:56.094Z,101020.19
2023-04-03T04:40:24.774Z,101022.10
2023-04-03T04:42:53.575Z,101027.66
2023-04-03T04:45:23.632Z,101035.53
2023-04-03T04:47:53.856Z,101038.33
2023-04-03T04:50:27.241Z,101040.60
2023-04-03T04:52:56.337Z,101045.85
2023-04-03T04:55:24.690Z,101051.94
2023-04-03T04:57:53.817Z,101058.74
2023-04-03T05:00:23.728Z,101059.27
2023-04-03T05:02:54.190Z,101062.05
2023-04-03T05:05:48.036Z,101067.83
2023-04-03T05:08:41.838Z,101075.89
2023-04-03T05:11:40.149Z,101084.27
2023-04-03T05:14:10.066Z,101092.15
2023-04-03T05:17:30.066Z,101093.00
2023-04-03T05:19:59.076Z,101103.85
2023-04-03T05:22:28.050Z,101106.31
2023-04-03T05:25:24.128Z,101113.84
2023-04-03T05:27:56.896Z,101120.30
2023-04-03T05:30:56.643Z,101126.06
2023-04-03T05:33:27.545Z,101134.13
2023-04-03T05:35:58.126Z,101134.45
2023-04-03T05:38:57.453Z,101142.33
2023-04-03T05:41:52.252Z,101149.99
2023-04-03T05:44:24.924Z,101157.30
2023-04-03T05:47:48.911Z,101168.48
2023-04-03T05:50:43.697Z,101181.10
2023-04-03T05:54:08.149Z,101192.25
2023-04-03T05:56:38.256Z,101194.48
2023-04-03T06:00:24.746Z,101197.92
2023-04-03T06:03:00.796Z,101222.21
2023-04-03T06:05:31.630Z,101222.69
2023-04-03T06:08:00.149Z,101233.16
2023-04-03T06:10:29.055Z,101239.41
2023-04-03T06:13:25.120Z,101250.54
2023-04-03T06:16:22.398Z,101270.59
2023-04-03T06:18:51.324Z,101274.39
2023-04-03T06:21:20.256Z,101282.79
2023-04-03T06:24:41.621Z,101288.23
2023-04-03T06:27:35.107Z,101306.79
2023-04-03T06:30:04.031Z,101305.37
2023-04-03T06:32:33.646Z,101312.35
2023-04-03T06:35:53.952Z,101318.44
2023-04-03T06:38:46.995Z,101338.39
2023-04-03T06:41:41.396Z,101341.52
2023-04-03T06:44:12.263Z,101350.23
2023-04-03T06:47:12.596Z,101364.01
2023-04-03T06:53:53.360Z,101383.46
2023-04-03T06:56:23.705Z,101394.66
2023-04-03T06:59:17.360Z,101397.05
2023-04-03T07:02:37.488Z,101409.48
2023-04-03T07:05:54.486Z,101420.20
2023-04-03T07:08:27.371Z,101417.20
2023-04-03T07:11:05.084Z,101424.01
2023-04-03T07:14:25.711Z,101429.75
2023-04-03T07:16:54.090Z,101441.41
2023-04-03T07:19:22.884Z,101445.20
2023-04-03T07:21:51.695Z,101451.98
2023-04-03T07:24:20.324Z,101461.60
2023-04-03T07:27:41.021Z,101472.05
2023-04-03T07:31:01.764Z,101494.23
2023-04-03T07:33:30.891Z,101509.45
2023-04-03T07:35:59.640Z,101509.02
2023-04-03T07:38:28.476Z,101522.11
2023-04-03T07:41:27.679Z,101526.81
2023-04-03T07:44:47.624Z,101541.37
2023-04-03T07:55:01.657Z,101558.84
2023-04-03T07:57:30.852Z,101610.52
2023-04-03T07:59:59.320Z,101614.17
2023-04-03T08:02:28.160Z,101609.95
2023-04-03T08:05:47.324Z,101614.87
2023-04-03T08:08:18.622Z,101629.77
2023-04-03T08:11:14.285Z,101629.05
2023-04-03T08:13:44.159Z,101626.20
2023-04-03T08:16:45.218Z,101632.65
2023-04-03T08:20:03.947Z,101652.23
2023-04-03T08:22:58.167Z,101651.30
2023-04-03T08:25:26.576Z,101664.06
2023-04-03T08:28:20.659Z,101663.86
2023-04-03T08:30:52.209Z,101678.04
2023-04-03T08:33:21.489Z,101676.46
2023-04-03T08:35:49.962Z,101679.58
2023-04-03T08:38:19.085Z,101683.40
2023-04-03T08:40:47.384Z,101688.05
2023-04-03T08:43:46.555Z,101700.63
2023-04-03T08:46:17.280Z,101716.02
2023-04-03T08:48:45.583Z,101719.94
2023-04-03T08:51:19.894Z,101728.65
2023-04-03T08:53:57.768Z,101736.67
2023-04-03T08:57:43.368Z,101745.90
2023-04-03T09:00:22.576Z,101769.83
2023-04-03T09:03:43.592Z,101780.23
2023-04-03T09:06:40.774Z,101811.11
2023-04-03T09:13:13.337Z,101860.11
2023-04-03T09:16:34.328Z,101873.94
2023-04-03T09:19:10.501Z,101903.62
2023-04-03T09:21:43.537Z,101913.67
2023-04-03T09:24:14.962Z,101920.61
2023-04-03T09:26:46.361Z,101930.42
2023-04-03T09:29:20.325Z,101933.38
2023-04-03T09:31:52.347Z,101938.08
2023-04-03T09:34:27.613Z,101939.98
2023-04-03T09:36:57.256Z,101942.56
2023-04-03T09:40:15.540Z,101947.05
2023-04-03T09:43:30.072Z,101970.76
2023-04-03T09:46:26.149Z,101970.89
2023-04-03T09:49:45.984Z,101978.30
2023-04-03T09:53:04.502Z,101976.95
2023-04-03T09:56:23.643Z,101963.21
2023-04-03T09:59:04.957Z,101938.08
2023-04-03T10:02:06.733Z,101921.50
2023-04-03T10:05:25.850Z,101906.52
2023-04-03T10:09:11.550Z,101892.05
2023-04-03T10:12:06.261Z,101886.00
2023-04-03T10:15:02.110Z,101879.19
2023-04-03T10:17:36.015Z,101880.14
2023-04-03T10:20:04.528Z,101868.60
2023-04-03T10:23:23.676Z,101865.85
2023-04-03T10:26:43.943Z,101868.46
2023-04-03T10:33:23.491Z,101864.09
2023-04-03T10:36:18.720Z,101853.42
2023-04-03T10:39:54.643Z,101854.90
2023-04-03T10:42:48.632Z,101861.84
2023-04-03T10:49:39.154Z,101855.16
2023-04-03T10:52:43.515Z,101854.33
2023-04-03T10:56:07.651Z,101846.98
2023-04-03T10:58:46.924Z,101849.70
2023-04-03T11:01:21.525Z,101841.00
2023-04-03T11:03:54.325Z,101836.34
2023-04-03T11:06:24.886Z,101830.64
2023-04-03T11:08:58.503Z,101826.99
2023-04-03T11:11:29.254Z,101829.13
2023-04-03T11:14:25.049Z,101829.64
2023-04-03T11:17:19.148Z,101835.40
2023-04-03T11:20:48.645Z,101851.70
2023-04-03T11:23:23.749Z,101856.76
2023-04-03T11:25:53.865Z,101854.41
2023-04-03T11:28:24.354Z,101863.82
2023-04-03T11:31:09.166Z,101876.52
2023-04-03T11:37:13.100Z,101931.69
2023-04-03T11:40:33.510Z,101942.12
2023-04-03T11:43:31.829Z,101974.02
2023-04-03T11:46:04.434Z,101972.86
2023-04-03T11:48:37.252Z,101986.31
2023-04-03T11:51:13.874Z,101996.30
2023-04-03T11:53:42.292Z,102002.10
2023-04-03T11:56:24.933Z,101995.86
2023-04-03T11:59:23.061Z,101988.79
2023-04-03T12:01:59.570Z,101986.96
2023-04-03T12:04:30.296Z,101981.54
2023-04-03T12:07:24.037Z,101976.24
2023-04-03T12:09:56.524Z,101984.54
2023-04-03T12:16:35.332Z,101993.39
2023-04-03T12:19:29.262Z,101982.94
2023-04-03T12:22:05.316Z,101979.11
2023-04-03T12:24:35.793Z,101962.59
2023-04-03T12:27:43.758Z,101956.45
2023-04-03T12:31:28.090Z,101958.41
2023-04-03T12:34:58.564Z,101970.23
2023-04-03T12:37:55.226Z,101977.27
2023-04-03T12:40:36.219Z,101982.59
2023-04-03T12:43:31.858Z,101978.92
2023-04-03T12:46:22.603Z,101973.05
2023-04-03T12:52:31.683Z,101978.77
2023-04-03T12:55:26.911Z,101978.85
2023-04-03T12:57:55.319Z,101983.05
2023-04-03T13:01:01.206Z,101979.11
2023-04-03T13:03:40.341Z,101990.50
2023-04-03T13:06:16.241Z,101980.48
2023-04-03T13:09:35.037Z,101971.95
2023-04-03T13:12:41.746Z,101971.65
2023-04-03T13:15:16.020Z,101973.90
2023-04-03T13:25:46.809Z,101988.04
2023-04-03T13:28:40.648Z,101991.38
2023-04-03T13:31:15.552Z,102014.56
2023-04-03T13:34:35.345Z,102039.61
2023-04-03T13:37:05.659Z,102068.36
2023-04-03T13:39:38.707Z,102071.77
2023-04-03T13:46:12.853Z,102069.98
2023-04-03T13:48:43.588Z,102048.73
2023-04-03T13:59:17.373Z,102005.52
2023-04-03T14:02:04.113Z,102051.52
2023-04-03T14:04:35.041Z,102020.75
2023-04-03T14:07:30.406Z,101995.59
2023-04-03T14:10:01.713Z,101980.32
2023-04-03T14:12:38.432Z,101964.26
2023-04-03T14:15:51.425Z,101953.33
2023-04-03T14:18:21.752Z,101940.67
2023-04-03T14:22:05.654Z,101915.97
2023-04-03T14:24:35.659Z,101893.05
2023-04-03T14:27:04.183Z,101869.55
2023-04-03T14:29:59.739Z,101857.16
2023-04-03T14:32:28.488Z,101844.09
2023-04-03T14:35:25.886Z,101822.98
2023-04-03T14:37:54.773Z,101802.53
2023-04-03T14:41:16.825Z,101778.60
2023-04-03T14:44:37.012Z,101762.95
2023-04-03T14:47:32.130Z,101752.02
2023-04-03T14:50:03.257Z,101733.17
2023-04-03T14:52:58.954Z,101720.08
2023-04-03T14:55:52.667Z,101720.23
2023-04-03T14:58:21.661Z,101711.48
2023-04-03T15:00:51.160Z,101700.43
2023-04-03T15:03:26.938Z,101696.25
2023-04-03T15:06:00.564Z,101691.91
2023-04-03T15:09:46.839Z,101693.88
2023-04-03T15:12:19.011Z,101695.19
2023-04-03T15:14:52.779Z,101684.34
2023-04-03T15:17:46.916Z,101681.75
2023-04-03T15:20:19.774Z,101679.17
2023-04-03T15:22:48.165Z,101677.46
2023-04-03T15:25:48.029Z,101681.89
2023-04-03T15:28:41.521Z,101690.01
2023-04-03T15:31:35.785Z,101688.79
2023-04-03T15:34:56.115Z,101688.81
2023-04-03T15:37:25.741Z,101695.54
2023-04-03T15:39:54.303Z,101696.27
2023-04-03T15:42:23.037Z,101695.77
2023-04-03T15:44:51.313Z,101692.26
2023-04-03T15:47:19.774Z,101687.52
2023-04-03T15:53:07.354Z,101694.23
2023-04-03T15:55:37.983Z,101693.73
2023-04-03T15:58:08.484Z,101692.34
2023-04-03T16:00:38.590Z,101692.20
2023-04-03T16:03:12.947Z,101695.58
2023-04-03T16:06:33.156Z,101695.25
2023-04-03T16:09:02.062Z,101703.59
2023-04-03T16:11:30.680Z,101696.75
2023-04-03T16:14:00.076Z,101697.31
2023-04-03T16:16:53.693Z,101695.43
2023-04-03T16:19:24.487Z,101699.36
2023-04-03T16:21:56.020Z,101703.44
2023-04-03T16:24:24.323Z,101707.17
2023-04-03T16:27:42.957Z,101708.08
2023-04-03T16:30:12.136Z,101720.94
2023-04-03T16:33:09.835Z,101725.55
2023-04-03T16:36:04.834Z,101732.80
2023-04-03T16:38:33.551Z,101737.90
2023-04-03T16:41:27.042Z,101740.20
2023-04-03T16:43:55.426Z,101750.21
2023-04-03T16:46:24.892Z,101747.42
2023-04-03T16:48:53.482Z,101753.75
2023-04-03T16:51:22.168Z,101755.01
2023-04-03T16:54:15.932Z,101760.82
2023-04-03T16:56:44.152Z,101768.71
2023-04-03T16:59:12.542Z,101763.95
2023-04-03T17:01:41.300Z,101763.77
2023-04-03T17:08:18.163Z,101778.66
2023-04-03T17:11:37.077Z,101774.30
2023-04-03T17:14:28.975Z,101784.33
2023-04-03T17:16:57.760Z,101773.64
2023-04-03T17:19:26.399Z,101769.08
2023-04-03T17:21:54.819Z,101768.05
2023-04-03T17:24:23.444Z,101766.52
2023-04-03T17:26:52.596Z,101766.70
2023-04-03T17:29:46.796Z,101771.45
2023-04-03T17:32:17.461Z,101776.22
2023-04-03T17:34:49.236Z,101775.51
2023-04-03T17:37:43.221Z,101773.23
2023-04-03T17:40:15.260Z,101778.83
2023-04-03T17:42:44.531Z,101781.64
2023-04-03T17:45:13.154Z,101784.44
2023-04-03T17:47:42.445Z,101787.06
2023-04-03T17:50:11.575Z,101787.91
2023-04-03T17:52:41.536Z,101787.72
2023-04-03T17:55:10.320Z,101791.97
2023-04-03T17:57:39.165Z,101794.77
2023-04-03T18:00:09.581Z,101798.99
2023-04-03T18:02:42.603Z,101800.23
2023-04-03T18:05:11.609Z,101799.70
2023-04-03T18:07:40.710Z,101801.47
2023-04-03T18:10:09.451Z,101799.36
2023-04-03T18:12:38.227Z,101796.21
2023-04-03T18:15:07.528Z,101792.91
2023-04-03T18:17:36.661Z,101792.59
2023-04-03T18:20:12.065Z,101789.94
2023-04-03T18:22:41.485Z,101785.38
2023-04-03T18:25:11.784Z,101785.38
2023-04-03T18:27:40.948Z,101783.83
2023-04-03T18:30:13.395Z,101779.66
2023-04-03T18:32:46.723Z,101772.54
2023-04-03T18:35:15.592Z,101772.39
2023-04-03T18:37:44.438Z,101774.00
2023-04-03T18:40:13.967Z,101776.98
2023-04-03T18:42:43.177Z,101783.10
2023-04-03T18:45:13.698Z,101785.73
2023-04-03T18:48:08.371Z,101787.99
2023-04-03T18:51:03.169Z,101792.91
2023-04-03T18:53:31.680Z,101793.79
2023-04-03T18:56:02.261Z,101799.39
2023-04-03T18:58:31.811Z,101806.27
2023-04-03T19:01:01.606Z,101807.49
2023-04-03T19:03:31.952Z,101808.39
2023-04-03T19:06:00.541Z,101815.23
2023-04-03T19:08:30.764Z,101813.66
2023-04-03T19:10:59.490Z,101816.31
2023-04-03T19:13:34.323Z,101816.85
2023-04-03T19:16:03.406Z,101815.61
2023-04-03T19:18:32.096Z,101818.42
2023-04-03T19:21:04.726Z,101821.07
2023-04-03T19:23:33.146Z,101823.19
2023-04-03T19:26:54.510Z,101821.63
2023-04-03T19:29:22.890Z,101833.94
2023-04-03T19:32:41.184Z,101831.70
2023-04-03T19:35:11.755Z,101837.88
2023-04-03T19:37:40.076Z,101835.10
2023-04-03T19:40:35.741Z,101830.23
2023-04-03T19:43:04.818Z,101826.73
2023-04-03T19:46:23.398Z,101825.89
2023-04-03T19:48:57.854Z,101832.59
2023-04-03T19:51:26.374Z,101827.69
2023-04-03T19:54:47.482Z,101829.27
2023-04-03T19:57:16.252Z,101832.09
2023-04-03T19:59:44.960Z,101831.74
2023-04-03T20:02:19.076Z,101828.09
2023-04-03T20:04:48.313Z,101825.47
2023-04-03T20:07:41.808Z,101832.15
2023-04-03T20:12:50.533Z,101834.25
2023-04-03T20:16:10.591Z,101857.50
2023-04-03T20:27:57.713Z,101869.35
2023-04-03T20:53:26.997Z,101892.36
2023-04-03T20:56:07.919Z,101889.04
2023-04-03T21:01:52.954Z,101884.86
2023-04-03T21:05:01.634Z,101880.31
2023-04-03T21:08:09.946Z,101876.81
2023-04-03T21:11:18.081Z,101883.14
2023-04-03T21:18:03.677Z,101897.41
2023-04-03T21:22:11.521Z,101911.13
2023-04-03T21:25:30.417Z,101912.37
2023-04-03T21:28:24.838Z,101907.29
2023-04-03T21:30:53.308Z,101913.09
2023-04-03T21:33:23.905Z,101912.58
2023-04-03T21:35:58.065Z,101914.16
2023-04-03T21:38:28.490Z,101921.18
2023-04-03T21:42:13.438Z,101924.70
2023-04-03T21:44:42.092Z,101933.85
2023-04-03T21:47:36.906Z,101926.84
2023-04-03T21:50:05.885Z,101932.48
2023-04-03T21:53:26.284Z,101927.77
2023-04-03T21:55:57.708Z,101929.89
2023-04-03T21:58:33.389Z,101925.71
2023-04-03T22:01:27.438Z,101923.10
2023-04-03T22:03:59.927Z,101921.23
2023-04-03T22:06:28.364Z,101914.06
2023-04-03T22:09:25.987Z,101910.38
2023-04-03T22:11:55.258Z,101909.01
2023-04-03T22:14:54.822Z,101906.23
2023-04-03T22:21:01.188Z,101900.16
2023-04-03T22:23:31.935Z,101889.33
2023-04-03T22:26:25.923Z,101879.72
2023-04-03T22:29:43.863Z,101881.72
2023-04-03T22:32:38.114Z,101875.66
2023-04-03T22:35:57.798Z,101866.59
2023-04-03T22:38:26.945Z,101863.83
2023-04-03T22:41:22.626Z,101858.42
2023-04-03T22:43:51.536Z,101856.15
2023-04-03T22:46:21.926Z,101853.35
2023-04-03T22:49:15.799Z,101848.98
2023-04-03T22:55:12.772Z,101848.63
2023-04-03T22:58:36.979Z,101858.27
2023-04-03T23:01:09.894Z,101856.86
2023-04-03T23:04:10.705Z,101865.10
2023-04-03T23:06:39.304Z,101872.45
2023-04-03T23:09:08.749Z,101871.92
2023-04-03T23:11:37.391Z,101873.31
2023-04-03T23:14:05.852Z,101878.73
2023-04-03T23:17:51.621Z,101882.06
2023-04-03T23:21:10.794Z,101895.20
2023-04-03T23:23:41.483Z,101903.61
2023-04-03T23:26:09.928Z,101911.30
2023-04-03T23:28:39.030Z,101917.26
2023-04-03T23:31:32.726Z,101921.27
2023-04-03T23:34:19.264Z,101929.86
2023-04-03T23:36:49.152Z,101931.44
2023-04-03T23:39:20.132Z,101927.91
2023-04-03T23:41:49.696Z,101932.30
2023-04-03T23:44:21.611Z,101927.55
2023-04-03T23:47:20.119Z,101933.00
2023-04-03T23:49:48.486Z,101933.35
2023-04-03T23:52:17.486Z,101937.02
2023-04-03T23:54:45.898Z,101940.20
2023-04-03T23:57:20.794Z,101942.48
2023-04-03T23:59:49.165Z,101943.54
